Time;durP1;ratioP1;P1;durP2;ratioP2;P2;SDS_P1;SDS_P2;PMS_P1;PMS_P2;Temp;Humidity;BMP_temperature;BMP_pressure;BME280_temperature;BME280_humidity;BME280_pressure;Samples;Min_cycle;Max_cycle;Signal;HPM_P1;HPM_P2
2022/09/02 00:00:48;;;;;;;6.83;4.03;;;12.70;51.70;;;;;;4981399;28;46517;-66
2022/09/02 00:03:15;;;;;;;6.73;4.60;;;12.60;50.90;;;;;;4981678;28;46364;-66
2022/09/02 00:05:41;;;;;;;6.67;4.10;;;12.60;51.80;;;;;;4982627;28;46559;-67
2022/09/02 00:08:07;;;;;;;11.50;4.23;;;12.70;52.00;;;;;;4982040;28;46479;-65
2022/09/02 00:10:37;;;;;;;7.60;4.47;;;12.60;51.80;;;;;;4982869;28;46498;-67
2022/09/02 00:13:03;;;;;;;6.40;4.00;;;12.60;50.90;;;;;;4983285;28;46281;-67
2022/09/02 00:15:29;;;;;;;5.80;4.37;;;12.60;51.80;;;;;;4979158;28;48103;-67
2022/09/02 00:17:55;;;;;;;12.33;4.50;;;12.60;51.90;;;;;;4980649;28;46307;-66
2022/09/02 00:20:20;;;;;;;8.13;4.20;;;12.60;52.00;;;;;;4982269;28;46390;-67
2022/09/02 00:22:46;;;;;;;8.60;4.30;;;12.60;52.00;;;;;;4982514;28;46585;-66
2022/09/02 00:25:12;;;;;;;8.60;4.20;;;12.60;52.20;;;;;;4981837;28;46092;-67
2022/09/02 00:27:37;;;;;;;5.90;3.73;;;12.60;53.60;;;;;;4982127;28;46443;-66
2022/09/02 00:30:05;;;;;;;7.33;4.20;;;12.50;52.70;;;;;;4981173;28;46483;-66
2022/09/02 00:32:31;;;;;;;8.07;4.30;;;12.50;53.10;;;;;;4982076;28;46308;-66
2022/09/02 00:34:57;;;;;;;6.63;4.70;;;12.50;53.50;;;;;;4981960;28;47298;-66
2022/09/02 00:37:24;;;;;;;13.33;4.20;;;12.50;53.60;;;;;;4980729;28;46631;-66
2022/09/02 00:39:51;;;;;;;8.90;4.87;;;12.50;54.00;;;;;;4980570;28;45824;-67
2022/09/02 00:42:18;;;;;;;5.40;4.13;;;12.50;53.90;;;;;;4983176;28;46556;-66
2022/09/02 00:44:43;;;;;;;10.10;4.70;;;12.50;53.90;;;;;;4980450;28;46405;-66
2022/09/02 00:47:10;;;;;;;6.93;4.80;;;12.40;53.80;;;;;;4981507;28;46260;-66
2022/09/02 00:49:40;;;;;;;9.20;5.10;;;12.50;53.90;;;;;;4982051;28;46395;-65
2022/09/02 00:52:18;;;;;;;7.13;4.80;;;12.40;53.80;;;;;;4982224;28;46562;-67
2022/09/02 00:54:55;;;;;;;5.80;4.60;;;12.40;53.80;;;;;;4983619;28;46352;-66
2022/09/02 00:57:22;;;;;;;11.90;5.30;;;12.40;53.80;;;;;;4980834;28;46396;-67
2022/09/02 00:59:54;;;;;;;9.50;4.87;;;12.40;53.90;;;;;;4980311;28;46413;-66
2022/09/02 01:02:24;;;;;;;9.20;5.27;;;12.30;54.30;;;;;;4982789;28;46277;-65
2022/09/02 01:04:50;;;;;;;13.00;4.70;;;12.30;54.60;;;;;;4994286;28;46646;-65
2022/09/02 01:07:16;;;;;;;9.00;5.13;;;12.30;54.40;;;;;;4980919;28;46632;-66
2022/09/02 01:09:42;;;;;;;9.87;6.10;;;12.20;54.40;;;;;;4982480;28;46417;-66
2022/09/02 01:12:08;;;;;;;9.73;5.17;;;12.20;54.70;;;;;;4981736;28;46376;-65
2022/09/02 01:14:34;;;;;;;14.33;5.30;;;12.10;54.80;;;;;;4979790;28;46928;-67
2022/09/02 01:17:01;;;;;;;9.73;6.10;;;12.10;54.80;;;;;;4981165;28;45808;-66
2022/09/02 01:19:35;;;;;;;7.20;5.40;;;12.10;54.90;;;;;;4981074;28;45854;-66
2022/09/02 01:22:01;;;;;;;10.20;6.23;;;12.00;54.10;;;;;;4980505;28;46417;-66
2022/09/02 01:24:31;;;;;;;9.60;5.47;;;12.00;55.10;;;;;;4977599;28;47105;-66
2022/09/02 01:26:59;;;;;;;7.20;5.70;;;12.00;55.20;;;;;;4978180;28;46521;-67
2022/09/02 01:29:26;;;;;;;9.60;5.67;;;11.90;55.40;;;;;;4979387;28;46438;-66
2022/09/02 01:31:51;;;;;;;11.67;6.40;;;11.80;55.00;;;;;;4979646;28;46538;-66
2022/09/02 01:34:17;;;;;;;9.20;6.30;;;11.80;55.90;;;;;;4978450;28;46658;-66
2022/09/02 01:36:43;;;;;;;7.50;5.73;;;11.80;56.20;;;;;;4980301;28;46558;-66
2022/09/02 01:39:10;;;;;;;9.57;6.40;;;11.80;56.40;;;;;;4978812;28;46543;-67
2022/09/02 01:41:36;;;;;;;18.70;6.53;;;11.70;56.10;;;;;;4980566;28;46489;-68
2022/09/02 01:44:04;;;;;;;9.30;6.30;;;11.70;55.20;;;;;;4980118;28;46480;-67
2022/09/02 01:46:30;;;;;;;7.30;5.70;;;11.70;56.20;;;;;;4980385;28;46383;-67
2022/09/02 01:48:56;;;;;;;10.10;6.30;;;11.70;56.50;;;;;;4980878;28;46508;-67
2022/09/02 01:51:21;;;;;;;10.07;6.00;;;11.70;56.50;;;;;;4980442;28;46459;-67
2022/09/02 01:53:47;;;;;;;8.00;6.13;;;11.70;55.60;;;;;;4980993;28;46343;-67
2022/09/02 01:56:13;;;;;;;12.30;6.27;;;11.70;57.70;;;;;;4977516;28;46416;-66
2022/09/02 01:58:39;;;;;;;9.33;6.67;;;11.60;56.70;;;;;;4979269;28;46375;-65
2022/09/02 02:01:06;;;;;;;10.23;6.00;;;11.50;56.90;;;;;;4981165;28;46810;-65
2022/09/02 02:03:32;;;;;;;8.67;6.97;;;11.50;56.10;;;;;;4979870;28;46288;-66
2022/09/02 02:05:58;;;;;;;14.20;6.90;;;11.50;57.10;;;;;;4979694;28;46462;-65
2022/09/02 02:08:24;;;;;;;7.97;6.73;;;11.50;57.00;;;;;;4979288;28;46420;-67
2022/09/02 02:10:50;;;;;;;9.47;6.20;;;11.80;57.30;;;;;;4979393;28;46465;-66
2022/09/02 02:13:16;;;;;;;8.70;6.53;;;11.40;56.40;;;;;;4978081;28;46471;-65
2022/09/02 02:15:43;;;;;;;8.57;5.93;;;11.40;57.30;;;;;;4979438;28;46479;-65
2022/09/02 02:18:08;;;;;;;10.27;6.70;;;11.40;57.40;;;;;;4979577;28;46308;-65
2022/09/02 02:20:35;;;;;;;12.90;7.33;;;11.30;57.30;;;;;;4979763;28;46688;-67
2022/09/02 02:23:01;;;;;;;9.70;7.10;;;11.30;57.10;;;;;;4978087;28;46737;-66
2022/09/02 02:25:26;;;;;;;12.47;7.30;;;11.20;58.00;;;;;;4978118;28;46540;-66
2022/09/02 02:27:52;;;;;;;12.00;7.27;;;11.20;58.10;;;;;;4979675;28;46607;-65
2022/09/02 02:30:18;;;;;;;8.93;6.70;;;11.20;58.10;;;;;;4980399;28;46744;-66
2022/09/02 02:32:46;;;;;;;9.50;5.90;;;11.20;58.00;;;;;;4978286;28;47023;-67
2022/09/02 02:35:14;;;;;;;9.30;6.10;;;11.20;58.00;;;;;;4979519;28;46363;-66
2022/09/02 02:37:40;;;;;;;7.07;5.40;;;11.10;58.10;;;;;;4978747;28;46341;-65
2022/09/02 02:40:07;;;;;;;7.00;5.50;;;11.00;58.00;;;;;;4979389;28;45931;-66
2022/09/02 02:42:33;;;;;;;8.80;5.80;;;10.90;57.30;;;;;;4975580;28;46611;-67
2022/09/02 02:44:58;;;;;;;9.50;6.53;;;10.90;58.40;;;;;;4980208;28;46367;-65
2022/09/02 02:47:24;;;;;;;8.90;6.20;;;10.80;58.60;;;;;;4979507;28;45966;-65
2022/09/02 02:49:49;;;;;;;8.20;5.93;;;10.70;58.70;;;;;;4979400;28;45857;-65
2022/09/02 02:52:15;;;;;;;8.10;5.83;;;10.60;58.80;;;;;;4978562;28;46355;-66
2022/09/02 02:54:41;;;;;;;7.00;6.10;;;10.60;58.90;;;;;;4980238;28;46476;-66
2022/09/02 02:57:08;;;;;;;10.00;6.30;;;10.50;59.00;;;;;;4979482;28;46475;-66
2022/09/02 02:59:35;;;;;;;10.00;7.30;;;10.50;59.10;;;;;;4980662;28;46490;-66
2022/09/02 03:02:01;;;;;;;8.53;6.30;;;10.50;58.30;;;;;;4979757;28;47091;-67
2022/09/02 03:04:27;;;;;;;9.20;6.20;;;10.40;59.10;;;;;;4978323;28;46395;-66
2022/09/02 03:06:52;;;;;;;8.20;5.83;;;10.40;59.20;;;;;;4979587;28;46386;-67
2022/09/02 03:09:19;;;;;;;9.67;6.50;;;10.30;59.20;;;;;;4979751;28;46789;-66
2022/09/02 03:11:45;;;;;;;8.47;6.40;;;10.30;59.30;;;;;;4980047;28;46482;-67
2022/09/02 03:14:11;;;;;;;9.80;6.10;;;10.20;58.40;;;;;;4994097;28;46321;-67
2022/09/02 03:16:36;;;;;;;8.00;6.40;;;10.20;59.70;;;;;;4980074;28;46305;-66
2022/09/02 03:19:03;;;;;;;8.73;6.50;;;10.10;59.70;;;;;;4979903;28;46498;-64
2022/09/02 03:21:29;;;;;;;11.33;7.63;;;10.10;59.90;;;;;;4979873;28;46594;-66
2022/09/02 03:23:55;;;;;;;14.37;7.50;;;10.00;58.80;;;;;;4979927;28;45762;-66
2022/09/02 03:26:23;;;;;;;11.47;7.33;;;10.10;59.90;;;;;;4980137;28;46565;-65
2022/09/02 03:28:50;;;;;;;9.50;6.90;;;10.00;59.70;;;;;;4979279;28;46049;-65
2022/09/02 03:31:19;;;;;;;11.07;7.57;;;10.00;59.60;;;;;;4979872;28;46545;-66
2022/09/02 03:33:45;;;;;;;13.53;7.07;;;10.00;58.70;;;;;;4979421;28;46363;-65
2022/09/02 03:36:27;;;;;;;11.10;6.60;;;10.00;59.70;;;;;;4985162;28;45813;-65
2022/09/02 03:38:53;;;;;;;11.07;6.73;;;9.90;60.60;;;;;;4979568;28;46347;-65
2022/09/02 03:41:19;;;;;;;12.83;8.70;;;9.90;60.60;;;;;;4979887;28;46277;-65
2022/09/02 03:43:45;;;;;;;12.37;9.10;;;9.90;59.80;;;;;;4978487;28;46737;-65
2022/09/02 03:46:12;;;;;;;11.27;9.00;;;9.90;60.70;;;;;;4977834;28;46611;-66
2022/09/02 03:48:39;;;;;;;17.57;8.93;;;9.90;60.90;;;;;;4979235;28;46483;-64
2022/09/02 03:51:05;;;;;;;10.20;7.80;;;9.90;60.80;;;;;;4976381;28;46345;-66
2022/09/02 03:53:31;;;;;;;10.27;7.70;;;9.90;60.10;;;;;;4979844;28;46491;-66
2022/09/02 03:55:57;;;;;;;12.40;7.83;;;9.90;61.00;;;;;;4983288;28;46436;-66
2022/09/02 03:58:23;;;;;;;15.87;7.90;;;9.90;61.00;;;;;;4983333;28;46930;-66
2022/09/02 04:00:53;;;;;;;9.43;7.20;;;9.90;60.90;;;;;;4983481;28;46287;-65
2022/09/02 04:03:19;;;;;;;9.67;7.53;;;9.90;60.90;;;;;;4982146;28;46430;-66
2022/09/02 04:05:51;;;;;;;11.30;7.87;;;9.90;60.90;;;;;;4983007;28;45822;-65
2022/09/02 04:08:17;;;;;;;10.60;7.70;;;9.80;60.90;;;;;;4981596;28;46515;-65
2022/09/02 04:10:43;;;;;;;11.30;7.93;;;9.80;61.00;;;;;;4983303;28;46281;-66
2022/09/02 04:13:09;;;;;;;8.17;6.27;;;9.80;61.10;;;;;;4982522;28;46594;-65
2022/09/02 04:15:39;;;;;;;11.53;6.90;;;9.80;61.00;;;;;;4982313;28;46190;-66
2022/09/02 04:18:04;;;;;;;11.83;7.00;;;9.70;61.00;;;;;;4981661;28;46527;-65
2022/09/02 04:20:30;;;;;;;8.60;6.30;;;9.70;61.10;;;;;;4983069;28;46996;-65
2022/09/02 04:22:55;;;;;;;11.10;7.60;;;9.60;60.30;;;;;;4981852;28;46661;-66
2022/09/02 04:25:22;;;;;;;12.73;7.30;;;9.60;61.30;;;;;;4983615;28;46435;-65
2022/09/02 04:27:48;;;;;;;10.83;8.20;;;9.60;61.20;;;;;;4982539;28;45823;-66
2022/09/02 04:30:15;;;;;;;13.00;9.60;;;9.60;61.40;;;;;;4994699;28;46537;-67
2022/09/02 04:32:41;;;;;;;12.07;9.00;;;9.70;60.50;;;;;;4982335;28;46371;-66
2022/09/02 04:35:07;;;;;;;12.83;8.90;;;9.70;61.50;;;;;;4983030;28;46447;-66
2022/09/02 04:37:33;;;;;;;12.73;7.87;;;9.70;61.40;;;;;;4980500;28;46838;-66
2022/09/02 04:39:58;;;;;;;18.63;8.67;;;9.70;61.10;;;;;;4982981;28;46200;-66
2022/09/02 04:42:24;;;;;;;11.33;8.37;;;9.80;60.20;;;;;;4982112;28;46325;-65
2022/09/02 04:44:51;;;;;;;13.30;8.23;;;9.80;61.20;;;;;;4981828;28;46450;-65
2022/09/02 04:47:17;;;;;;;13.40;8.47;;;9.80;61.10;;;;;;4980992;28;46460;-66
2022/09/02 04:49:42;;;;;;;10.43;7.23;;;9.90;61.10;;;;;;4982567;28;46949;-65
2022/09/02 04:52:09;;;;;;;8.93;7.03;;;9.90;61.10;;;;;;4980441;28;46500;-66
2022/09/02 04:54:35;;;;;;;9.07;7.30;;;10.10;60.30;;;;;;4983606;28;46330;-66
2022/09/02 04:57:01;;;;;;;11.00;7.77;;;10.00;60.20;;;;;;4981997;28;45994;-66
2022/09/02 04:59:26;;;;;;;10.83;6.77;;;10.00;60.10;;;;;;4981075;28;46383;-66
2022/09/02 05:01:52;;;;;;;9.33;6.27;;;10.10;59.20;;;;;;4980977;28;46454;-66
2022/09/02 05:04:18;;;;;;;7.17;5.13;;;10.10;60.00;;;;;;4981046;28;46627;-66
2022/09/02 05:06:45;;;;;;;9.33;5.40;;;10.20;60.00;;;;;;4981928;28;46286;-65
2022/09/02 05:09:11;;;;;;;5.77;5.10;;;10.30;59.90;;;;;;4979703;28;46998;-66
2022/09/02 05:11:37;;;;;;;9.30;5.27;;;10.30;59.90;;;;;;4981605;28;45925;-64
2022/09/02 05:14:06;;;;;;;6.20;5.33;;;10.30;58.70;;;;;;4982807;28;46401;-66
2022/09/02 05:16:35;;;;;;;13.30;6.37;;;10.40;59.80;;;;;;4981289;28;46372;-66
2022/09/02 05:19:03;;;;;;;9.10;6.80;;;10.40;59.70;;;;;;4981430;28;47006;-66
2022/09/02 05:21:30;;;;;;;7.60;6.00;;;10.50;59.80;;;;;;4982111;28;46643;-65
2022/09/02 05:23:57;;;;;;;10.17;7.20;;;10.70;58.70;;;;;;4982334;28;46448;-65
2022/09/02 05:26:22;;;;;;;6.07;4.80;;;10.90;59.10;;;;;;4981104;28;46557;-66
2022/09/02 05:28:49;;;;;;;8.50;4.13;;;11.80;58.80;;;;;;4981740;28;47002;-66
2022/09/02 05:31:16;;;;;;;7.80;4.50;;;12.60;59.40;;;;;;4981741;28;46418;-65
2022/09/02 05:33:42;;;;;;;5.93;3.97;;;13.40;58.30;;;;;;4982016;28;46486;-66
2022/09/02 05:36:11;;;;;;;4.87;3.63;;;14.00;59.20;;;;;;4981962;28;46518;-66
2022/09/02 05:38:38;;;;;;;6.20;4.30;;;14.60;58.30;;;;;;4980982;28;46904;-66
2022/09/02 05:41:09;;;;;;;4.83;4.10;;;15.00;57.40;;;;;;4981695;28;46506;-66
2022/09/02 05:43:37;;;;;;;5.43;4.60;;;15.60;55.00;;;;;;4981358;28;46360;-65
2022/09/02 05:46:05;;;;;;;9.70;4.20;;;15.90;55.90;;;;;;4980078;28;46415;-66
2022/09/02 05:51:15;;;;;;;9.43;4.33;;;16.60;53.30;;;;;;4980993;28;45821;-67
2022/09/02 05:53:41;;;;;;;5.60;3.80;;;16.90;50.50;;;;;;4980729;28;46473;-66
2022/09/02 05:56:07;;;;;;;5.07;3.77;;;17.20;51.40;;;;;;4981556;28;46376;-67
2022/09/02 05:58:32;;;;;;;6.07;3.60;;;17.40;50.30;;;;;;4979561;28;46633;-67
2022/09/02 06:00:58;;;;;;;5.90;3.83;;;17.60;49.60;;;;;;4977532;28;46446;-67
2022/09/02 06:03:23;;;;;;;4.57;3.13;;;17.50;48.30;;;;;;4981126;28;46446;-66
2022/09/02 06:05:55;;;;;;;6.43;3.77;;;17.70;44.50;;;;;;4980066;28;46510;-66
2022/09/02 06:08:20;;;;;;;5.23;3.67;;;17.80;45.60;;;;;;4980963;28;47156;-66
2022/09/02 06:10:46;;;;;;;5.60;4.00;;;17.90;44.20;;;;;;4981866;28;46326;-66
2022/09/02 06:13:12;;;;;;;5.60;4.43;;;18.00;42.70;;;;;;4979618;28;46501;-66
2022/09/02 06:15:42;;;;;;;5.33;4.20;;;16.80;43.90;;;;;;4980298;28;46409;-66
2022/09/02 06:18:08;;;;;;;9.10;4.57;;;16.10;45.70;;;;;;4978797;28;47200;-66
2022/09/02 06:20:34;;;;;;;5.20;4.17;;;15.50;47.20;;;;;;4979901;28;46312;-67
2022/09/02 06:23:00;;;;;;;8.87;4.40;;;15.30;48.30;;;;;;4974791;28;46483;-66
2022/09/02 06:25:26;;;;;;;8.90;4.80;;;15.10;49.40;;;;;;4977375;28;46431;-67
2022/09/02 06:27:52;;;;;;;7.50;4.23;;;15.30;49.80;;;;;;4976397;28;46380;-67
2022/09/02 06:30:18;;;;;;;7.23;4.13;;;15.60;48.20;;;;;;4976387;28;46318;-66
2022/09/02 06:32:44;;;;;;;6.13;4.20;;;15.80;46.80;;;;;;4976688;28;46532;-67
2022/09/02 06:35:09;;;;;;;8.40;5.03;;;15.40;47.70;;;;;;4977082;28;46479;-67
2022/09/02 06:37:35;;;;;;;7.53;4.73;;;15.20;48.50;;;;;;4974965;28;47086;-67
2022/09/02 06:40:01;;;;;;;8.23;4.93;;;14.90;49.20;;;;;;4977413;28;46237;-66
2022/09/02 06:42:27;;;;;;;6.93;5.30;;;14.90;49.60;;;;;;4976881;28;46419;-66
2022/09/02 06:44:52;;;;;;;9.50;5.20;;;14.90;49.80;;;;;;4976407;28;46413;-65
2022/09/02 06:47:18;;;;;;;7.17;5.17;;;14.90;49.70;;;;;;4975965;28;47191;-67
2022/09/02 06:49:43;;;;;;;10.53;5.30;;;15.00;49.70;;;;;;4977320;28;46348;-68
2022/09/02 06:52:12;;;;;;;8.90;5.50;;;15.20;49.40;;;;;;4976889;28;46488;-66
2022/09/02 06:54:38;;;;;;;8.37;5.30;;;15.20;49.40;;;;;;4977728;28;46451;-66
2022/09/02 06:57:04;;;;;;;8.63;5.37;;;15.30;49.20;;;;;;4976731;28;46706;-66
2022/09/02 06:59:29;;;;;;;7.73;4.87;;;15.30;49.20;;;;;;4976537;28;46411;-67
2022/09/02 07:01:55;;;;;;;7.47;5.50;;;15.50;48.40;;;;;;4976385;28;46356;-66
2022/09/02 07:07:07;;;;;;;11.63;4.97;;;15.50;49.30;;;;;;4976590;28;46741;-67
2022/09/02 07:09:33;;;;;;;10.27;5.10;;;15.50;49.40;;;;;;4977225;28;46478;-67
2022/09/02 07:12:00;;;;;;;6.40;5.07;;;15.50;48.50;;;;;;4975931;28;46315;-67
2022/09/02 07:14:27;;;;;;;7.77;5.40;;;15.50;49.40;;;;;;4974238;28;46443;-67
2022/09/02 07:16:56;;;;;;;9.30;4.57;;;15.60;49.40;;;;;;4976008;28;46703;-67
2022/09/02 07:19:22;;;;;;;11.53;4.23;;;15.70;49.30;;;;;;4975939;28;46451;-66
2022/09/02 07:21:49;;;;;;;7.80;4.10;;;15.70;48.30;;;;;;4975705;28;46403;-67
2022/09/02 07:24:15;;;;;;;7.50;4.60;;;15.60;49.20;;;;;;4976610;28;46011;-65
2022/09/02 07:26:41;;;;;;;6.20;4.87;;;15.80;49.20;;;;;;4976978;28;46466;-65
2022/09/02 07:29:07;;;;;;;8.53;4.20;;;15.80;49.00;;;;;;4980894;28;46470;-66
2022/09/02 07:31:39;;;;;;;11.10;4.17;;;16.00;48.70;;;;;;4981204;28;46446;-66
2022/09/02 07:34:06;;;;;;;6.23;4.07;;;16.00;47.20;;;;;;4978039;28;46339;-66
2022/09/02 07:36:33;;;;;;;8.73;4.47;;;16.10;48.00;;;;;;4979352;28;47147;-68
2022/09/02 07:39:00;;;;;;;9.23;5.00;;;16.10;47.70;;;;;;4979549;28;46424;-68
2022/09/02 07:41:25;;;;;;;6.20;3.63;;;16.20;47.70;;;;;;4981726;28;46427;-66
2022/09/02 07:43:52;;;;;;;7.97;4.07;;;16.20;46.50;;;;;;4979167;28;46449;-64
2022/09/02 07:46:18;;;;;;;6.73;4.30;;;16.40;48.50;;;;;;4978357;28;46467;-65
2022/09/02 07:48:44;;;;;;;9.87;3.70;;;16.40;46.80;;;;;;4979657;28;46426;-66
2022/09/02 07:51:10;;;;;;;5.83;3.77;;;16.50;46.60;;;;;;4980951;28;46391;-66
2022/09/02 07:53:36;;;;;;;10.17;3.90;;;16.60;46.30;;;;;;4980715;28;46950;-66
2022/09/02 07:56:03;;;;;;;5.27;3.70;;;16.80;45.90;;;;;;4978667;28;47249;-65
2022/09/02 07:58:29;;;;;;;6.63;3.73;;;17.00;45.20;;;;;;4978002;28;46428;-65
2022/09/02 08:00:55;;;;;;;11.23;4.20;;;17.00;44.90;;;;;;4978780;28;46434;-65
2022/09/02 08:03:23;;;;;;;5.20;3.33;;;17.00;44.90;;;;;;4977220;28;45988;-65
2022/09/02 08:05:48;;;;;;;7.50;4.20;;;17.00;44.90;;;;;;4978283;28;46658;-64
2022/09/02 08:08:15;;;;;;;7.40;3.57;;;16.90;44.80;;;;;;4979244;28;46442;-65
2022/09/02 08:10:42;;;;;;;5.13;4.17;;;17.10;45.00;;;;;;4979002;28;46783;-65
2022/09/02 08:13:09;;;;;;;4.97;3.37;;;17.20;44.40;;;;;;4981010;28;46514;-67
2022/09/02 08:15:36;;;;;;;8.90;4.37;;;17.20;44.40;;;;;;4977857;28;46363;-66
2022/09/02 08:18:03;;;;;;;5.33;3.43;;;17.20;43.90;;;;;;4976776;28;46347;-68
2022/09/02 08:20:29;;;;;;;7.00;4.10;;;17.20;43.30;;;;;;4979937;28;46460;-67
2022/09/02 08:22:55;;;;;;;12.53;4.27;;;17.20;43.50;;;;;;4979727;28;46408;-67
2022/09/02 08:25:21;;;;;;;6.83;3.83;;;17.30;43.30;;;;;;4977985;28;46494;-66
2022/09/02 08:27:46;;;;;;;7.83;3.80;;;17.40;42.80;;;;;;4976809;28;46486;-66
2022/09/02 08:30:12;;;;;;;8.83;3.73;;;17.40;42.70;;;;;;4981124;28;46482;-66
2022/09/02 08:32:39;;;;;;;7.03;3.60;;;17.40;42.30;;;;;;4982527;28;46539;-65
2022/09/02 08:35:06;;;;;;;8.43;3.40;;;17.60;42.10;;;;;;4978940;28;46456;-66
2022/09/02 08:37:33;;;;;;;8.13;3.30;;;17.80;41.20;;;;;;4978713;28;46433;-64
2022/09/02 08:40:00;;;;;;;5.00;3.10;;;17.90;40.90;;;;;;4979834;28;46402;-66
2022/09/02 08:42:34;;;;;;;8.03;3.43;;;18.00;39.90;;;;;;4979590;28;46582;-67
2022/09/02 08:45:16;;;;;;;6.40;3.50;;;18.00;39.80;;;;;;4979947;28;46698;-67
2022/09/02 08:47:46;;;;;;;4.63;2.97;;;18.00;39.70;;;;;;4974721;28;46343;-67
2022/09/02 08:50:15;;;;;;;5.70;3.80;;;18.10;39.30;;;;;;4979562;28;46658;-67
2022/09/02 08:53:09;;;;;;;9.03;3.27;;;18.20;39.20;;;;;;4980357;28;46811;-66
2022/09/02 08:55:43;;;;;;;5.43;3.60;;;18.20;39.00;;;;;;4979055;28;46456;-67
2022/09/02 08:58:09;;;;;;;6.67;3.03;;;18.20;38.40;;;;;;4978435;28;46520;-67
2022/09/02 09:00:40;;;;;;;7.43;3.23;;;18.30;38.10;;;;;;4979221;28;46507;-67
2022/09/02 09:03:29;;;;;;;8.30;3.13;;;18.40;38.00;;;;;;4979555;28;46320;-66
2022/09/02 09:06:22;;;;;;;4.67;3.10;;;18.50;37.90;;;;;;4977743;28;47191;-65
2022/09/02 09:09:12;;;;;;;5.10;3.00;;;18.70;37.50;;;;;;4977865;28;46803;-66
2022/09/02 09:12:04;;;;;;;5.57;3.40;;;18.90;37.30;;;;;;4977977;28;46417;-66
2022/09/02 09:14:37;;;;;;;13.10;3.00;;;19.00;36.30;;;;;;4978382;28;45952;-66
2022/09/02 09:17:16;;;;;;;5.10;3.23;;;19.00;35.40;;;;;;4975682;28;46488;-66
2022/09/02 09:19:53;;;;;;;7.03;2.43;;;18.90;35.00;;;;;;4978765;28;46355;-67
2022/09/02 09:22:24;;;;;;;4.27;2.37;;;18.90;35.40;;;;;;4979157;28;46399;-66
2022/09/02 09:24:50;;;;;;;5.70;2.33;;;19.10;35.20;;;;;;4978519;28;46675;-67
2022/09/02 09:27:21;;;;;;;10.40;2.37;;;19.00;34.00;;;;;;4978489;28;46229;-66
2022/09/02 09:29:48;;;;;;;4.87;2.17;;;19.00;34.00;;;;;;4978807;28;46391;-66
2022/09/02 09:32:24;;;;;;;4.67;2.50;;;19.10;33.20;;;;;;4975402;28;46411;-66
2022/09/02 09:34:56;;;;;;;4.80;2.87;;;19.30;32.40;;;;;;4979211;28;46512;-67
2022/09/02 09:38:08;;;;;;;8.77;2.40;;;19.40;32.50;;;;;;4975290;28;47034;-66
2022/09/02 09:40:36;;;;;;;5.67;2.47;;;19.50;31.60;;;;;;4974029;28;46562;-67
2022/09/02 09:43:04;;;;;;;5.70;2.23;;;19.40;31.60;;;;;;4975217;28;46887;-70
2022/09/02 09:45:33;;;;;;;3.87;2.50;;;19.40;31.00;;;;;;4977010;28;46539;-69
2022/09/02 09:48:26;;;;;;;5.03;2.13;;;19.30;30.50;;;;;;4977367;28;46672;-66
2022/09/02 09:50:54;;;;;;;4.90;2.63;;;19.30;30.10;;;;;;4978472;28;46407;-67
2022/09/02 09:53:26;;;;;;;4.20;2.30;;;19.50;30.20;;;;;;4977873;28;46435;-67
2022/09/02 09:56:05;;;;;;;4.13;2.00;;;19.60;30.10;;;;;;4977987;28;46617;-66
2022/09/02 09:58:39;;;;;;;4.27;2.10;;;19.60;29.70;;;;;;4976554;28;46670;-66
2022/09/02 10:01:27;;;;;;;5.67;1.90;;;19.50;29.60;;;;;;4974522;28;46355;-66
2022/09/02 10:04:02;;;;;;;6.20;2.30;;;19.50;29.20;;;;;;4977231;28;46431;-68
2022/09/02 10:06:47;;;;;;;8.00;2.60;;;19.60;29.40;;;;;;4979055;28;46464;-65
2022/09/02 10:09:18;;;;;;;3.23;1.87;;;19.70;29.00;;;;;;4978170;28;46601;-68
2022/09/02 10:12:03;;;;;;;5.87;2.27;;;19.90;29.10;;;;;;4976444;28;46427;-65
2022/09/02 10:14:39;;;;;;;4.07;1.90;;;19.90;28.30;;;;;;4977955;28;46573;-69
2022/09/02 10:17:12;;;;;;;11.23;1.80;;;19.80;27.90;;;;;;4976700;28;46587;-68
2022/09/02 10:19:51;;;;;;;8.43;2.10;;;19.80;27.80;;;;;;4977751;28;46439;-68
2022/09/02 10:22:35;;;;;;;10.70;1.90;;;20.00;28.00;;;;;;4977123;28;46462;-67
2022/09/02 10:25:20;;;;;;;5.87;2.10;;;20.10;28.00;;;;;;4977110;28;46507;-67
2022/09/02 10:28:23;;;;;;;4.17;2.37;;;20.20;27.30;;;;;;4978953;28;46579;-66
2022/09/02 10:31:23;;;;;;;3.13;1.87;;;20.30;27.20;;;;;;4975847;28;46659;-66
2022/09/02 10:34:18;;;;;;;4.27;2.00;;;20.20;26.20;;;;;;4976715;28;46519;-68
2022/09/02 10:37:07;;;;;;;3.13;1.70;;;20.20;26.50;;;;;;4977854;28;46420;-67
2022/09/02 10:39:58;;;;;;;5.40;1.63;;;20.20;26.00;;;;;;4977937;28;46509;-67
2022/09/02 10:42:44;;;;;;;4.03;1.97;;;20.20;25.80;;;;;;4976767;28;47319;-68
2022/09/02 10:45:16;;;;;;;10.53;1.90;;;20.40;25.40;;;;;;4976805;28;46419;-66
2022/09/02 10:47:53;;;;;;;5.30;1.80;;;20.40;25.50;;;;;;4977225;28;46466;-67
2022/09/02 10:50:45;;;;;;;2.97;1.60;;;20.50;24.90;;;;;;4976138;28;46463;-65
2022/09/02 10:53:25;;;;;;;5.50;3.07;;;20.50;23.80;;;;;;4978019;28;46534;-67
2022/09/02 10:56:04;;;;;;;6.20;1.83;;;20.40;23.80;;;;;;4976471;28;46491;-65
2022/09/02 10:59:17;;;;;;;9.13;2.20;;;20.50;23.70;;;;;;4977567;28;46485;-67
2022/09/02 11:02:04;;;;;;;3.13;1.50;;;20.70;22.90;;;;;;4977552;28;46518;-67
2022/09/02 11:04:50;;;;;;;3.75;1.73;;;20.70;22.90;;;;;;4980750;28;46356;-67
2022/09/02 11:07:27;;;;;;;3.30;1.77;;;20.60;21.70;;;;;;4980808;28;46448;-67
2022/09/02 11:10:03;;;;;;;4.00;1.93;;;20.60;22.30;;;;;;4980658;28;45941;-67
2022/09/02 11:12:36;;;;;;;5.53;1.60;;;20.60;22.30;;;;;;4980749;28;46740;-66
2022/09/02 11:15:25;;;;;;;5.20;1.53;;;20.60;22.30;;;;;;4978182;28;46565;-65
2022/09/02 11:18:05;;;;;;;5.53;1.90;;;20.70;22.10;;;;;;4978533;28;46435;-67
2022/09/02 11:20:45;;;;;;;4.20;1.80;;;20.70;21.90;;;;;;4979774;28;46616;-65
2022/09/02 11:23:33;;;;;;;4.70;1.70;;;20.80;21.70;;;;;;4981025;28;46448;-67
2022/09/02 11:26:17;;;;;;;2.70;1.60;;;20.80;21.90;;;;;;4979268;28;47299;-65
2022/09/02 11:29:15;;;;;;;4.87;1.73;;;20.90;21.40;;;;;;4982457;28;46404;-66
2022/09/02 11:31:46;;;;;;;3.43;1.40;;;20.90;20.80;;;;;;4983341;28;46437;-68
2022/09/02 11:34:20;;;;;;;2.70;1.53;;;21.00;20.90;;;;;;4977829;28;46475;-66
2022/09/02 11:36:47;;;;;;;3.80;2.10;;;21.00;20.90;;;;;;4978997;28;46505;-66
2022/09/02 11:39:33;;;;;;;4.30;1.70;;;21.00;20.40;;;;;;4979047;28;46380;-65
2022/09/02 11:42:23;;;;;;;2.73;1.60;;;21.00;19.10;;;;;;4981104;28;46403;-66
2022/09/02 11:45:27;;;;;;;8.13;2.00;;;21.00;20.00;;;;;;4977649;28;46451;-66
2022/09/02 11:48:10;;;;;;;3.30;1.60;;;21.00;20.20;;;;;;4939863;28;47246;-66
2022/09/02 11:50:44;;;;;;;2.90;1.40;;;21.20;20.40;;;;;;4958167;28;46456;-65
2022/09/02 11:53:30;;;;;;;3.80;1.37;;;21.20;19.90;;;;;;4971481;28;45854;-66
2022/09/02 11:56:03;;;;;;;5.40;1.70;;;21.20;19.80;;;;;;4979908;28;46463;-67
2022/09/02 11:58:51;;;;;;;2.90;1.50;;;21.40;19.90;;;;;;4978547;28;47243;-67
2022/09/02 12:01:32;;;;;;;3.33;1.80;;;21.30;19.30;;;;;;4978138;28;46372;-66
2022/09/02 12:04:10;;;;;;;7.30;1.67;;;21.20;17.80;;;;;;4978093;28;46487;-67
2022/09/02 12:06:36;;;;;;;4.93;1.57;;;21.20;19.00;;;;;;4978017;28;45955;-67
2022/09/02 12:09:05;;;;;;;5.40;1.57;;;21.30;19.20;;;;;;4977147;28;46435;-65
2022/09/02 12:11:47;;;;;;;7.83;1.63;;;21.50;19.40;;;;;;4979239;28;46824;-67
2022/09/02 12:14:25;;;;;;;3.30;1.87;;;21.40;17.50;;;;;;4978183;28;46392;-67
2022/09/02 12:17:08;;;;;;;4.77;1.90;;;21.30;18.40;;;;;;4979081;28;46738;-67
2022/09/02 12:19:44;;;;;;;4.70;1.93;;;21.40;18.60;;;;;;4978735;28;47027;-67
2022/09/02 12:22:15;;;;;;;4.93;1.73;;;21.40;17.60;;;;;;4979960;28;46484;-66
2022/09/02 12:24:53;;;;;;;5.87;1.83;;;21.40;18.40;;;;;;4978533;28;46607;-69
2022/09/02 12:27:37;;;;;;;5.60;1.73;;;21.50;18.60;;;;;;4978211;28;46494;-66
2022/09/02 12:30:06;;;;;;;4.77;1.87;;;21.40;18.20;;;;;;4977389;28;46808;-65
2022/09/02 12:32:50;;;;;;;7.37;1.80;;;21.40;17.80;;;;;;4979207;28;46920;-66
2022/09/02 12:35:50;;;;;;;3.23;1.70;;;21.60;18.80;;;;;;4978973;28;45963;-67
2022/09/02 12:38:25;;;;;;;3.13;1.53;;;21.70;18.20;;;;;;4958003;28;46422;-68
2022/09/02 12:40:56;;;;;;;2.67;1.50;;;21.80;18.30;;;;;;4978346;28;47218;-65
2022/09/02 12:43:29;;;;;;;5.43;1.60;;;21.70;17.10;;;;;;4980336;28;46562;-66
2022/09/02 12:46:05;;;;;;;4.70;1.90;;;21.70;17.80;;;;;;4980170;28;46518;-68
2022/09/02 12:48:41;;;;;;;4.73;1.60;;;21.80;17.80;;;;;;4976139;28;46391;-67
2022/09/02 12:51:07;;;;;;;5.13;1.60;;;21.90;17.30;;;;;;4979751;28;46521;-67
2022/09/02 12:53:40;;;;;;;4.87;2.17;;;21.80;16.60;;;;;;4978836;28;45838;-66
2022/09/02 12:56:12;;;;;;;5.67;1.60;;;21.70;17.50;;;;;;4980322;28;46565;-68
2022/09/02 12:58:44;;;;;;;4.60;1.70;;;21.70;17.10;;;;;;4978082;28;46222;-65
2022/09/02 13:01:24;;;;;;;3.00;1.50;;;21.60;17.20;;;;;;4979492;28;46438;-65
2022/09/02 13:04:05;;;;;;;4.83;1.77;;;21.70;16.60;;;;;;4979428;28;46430;-64
2022/09/02 13:06:49;;;;;;;5.63;2.17;;;21.70;17.50;;;;;;4994024;28;46506;-64
2022/09/02 13:09:49;;;;;;;3.83;1.63;;;21.80;16.80;;;;;;4980237;28;46455;-68